• Join FlightAware (Why Join?)
  • Login
  • US Flag 
04:17PM EST


 

Airport Tracker/Info


-or-


 

Live Flight TrackerFlight Track Log ✈ AAY846 ✈ 14-Jun-2014 ✈ KPIE - KPIA

Flight Track Log - Related Links

Times and Time Zones

All times are in EDT time to prevent confusion due to time zone crossing. See the AAY846 flight status page for this flight to view local times or setup timezone preferences in your user account.

Time Position Orientation Groundspeed Altitude Reporting Facility
EDT Latitude Longitude Course Direction KTS MPH feet Rate Location/Type
08:07AM 27.9000 -82.6833 180° South 136 157 600  Level Tampa TRACON
08:08AM 27.8833 -82.6833 180° South 164 189 1,700 1,680 Climbing Tampa TRACON
08:09AM 27.8333 -82.7000 196° South 222 255 3,200 1,980 Climbing Tampa TRACON
08:10AM 27.8667 -82.7500 307° West 277 319 5,700 2,640 Climbing Tampa TRACON
08:12AM 28.0131 -82.7433 North 291 335 10,700 2,160 Climbing Miami Center
08:13AM 28.1083 -82.7444 359° North 341 392 12,000 1,680 Climbing Miami Center
08:14AM 28.2122 -82.7489 358° North 367 422 14,200 2,160 Climbing Miami Center
08:15AM 28.3200 -82.7539 358° North 381 438 16,500 2,040 Climbing Miami Center
08:16AM 28.4533 -82.7614 357° North 394 453 18,500 1,860 Climbing Miami Center
08:17AM 28.5653 -82.7886 348° North 404 465 20,400 1,800 Climbing Miami Center
08:18AM 28.6867 -82.8142 350° North 417 480 22,200 1,560 Climbing Miami Center
08:19AM 28.8044 -82.8397 349° North 425 489 23,700 1,380 Climbing Miami Center
08:20AM 28.9186 -82.8878 340° North 429 494 25,100 1,320 Climbing Miami Center
08:21AM 29.0331 -82.9394 338° Northwest 438 504 26,500 1,260 Climbing Miami Center
08:22AM 29.1386 -83.0122 329° Northwest 444 511 27,800 1,140 Climbing Miami Center
08:23AM 29.2564 -83.0633 339° North 447 514 28,900 1,020 Climbing Miami Center
08:24AM 29.3750 -83.1208 337° Northwest 455 524 30,000 1,260 Climbing Miami Center
08:25AM 29.4939 -83.1792 337° Northwest 456 525 31,600 1,380 Climbing Miami Center
08:26AM 29.6103 -83.2358 337° Northwest 452 520 32,900 1,140 Climbing Miami Center
08:27AM 29.7261 -83.2933 337° Northwest 448 516 34,000 1,200 Climbing Miami Center
08:28AM 29.8653 -83.3619 337° Northwest 449 517 35,400 960 Climbing Miami Center
08:29AM 29.9772 -83.4178 337° Northwest 444 511 36,000 300 Climbing Jacksonville Center
08:30AM 30.0939 -83.4758 337° Northwest 444 511 36,000  Level Jacksonville Center
08:31AM 30.2064 -83.5319 337° Northwest 439 505 36,000  Level Jacksonville Center
08:32AM 30.3211 -83.5881 337° Northwest 439 505 36,000  Level Jacksonville Center
08:33AM 30.4189 -83.6369 337° Northwest 439 505 36,000  Level Jacksonville Center
08:34AM 30.5333 -83.6933 337° Northwest 439 505 36,000  Level Jacksonville Center
08:35AM 30.6561 -83.7547 337° Northwest 432 497 36,000  Level Jacksonville Center
08:36AM 30.7706 -83.8136 336° Northwest 437 503 36,000  Level Jacksonville Center
08:37AM 30.8850 -83.8706 337° Northwest 443 510 36,000  Level Jacksonville Center
08:38AM 30.9972 -83.9322 335° Northwest 438 504 36,000  Level Jacksonville Center
08:39AM 31.1094 -83.9869 337° Northwest 438 504 36,000  Level Jacksonville Center
08:40AM 31.2239 -84.0442 337° Northwest 438 504 36,000  Level Jacksonville Center
08:42AM 31.4544 -84.1631 336° Northwest 425 489 36,000  Level Atlanta Center
08:43AM 31.5669 -84.2192 337° Northwest 430 495 36,000  Level Atlanta Center
08:44AM 31.6817 -84.2806 336° Northwest 436 502 36,000  Level Atlanta Center
08:45AM 31.7942 -84.3369 337° Northwest 441 507 36,000  Level Atlanta Center
08:46AM 31.9111 -84.3961 337° Northwest 441 507 36,000  Level Atlanta Center
08:47AM 32.0214 -84.4528 336° Northwest 441 507 36,000  Level Atlanta Center
08:48AM 32.1339 -84.5122 336° Northwest 441 507 36,000  Level Atlanta Center
08:49AM 32.2444 -84.5692 336° Northwest 441 507 36,000  Level Atlanta Center
08:50AM 32.3525 -84.6289 335° Northwest 436 502 36,000  Level Atlanta Center
08:51AM 32.4650 -84.6839 338° Northwest 436 502 36,000  Level Atlanta Center
08:52AM 32.5753 -84.7439 335° Northwest 436 502 36,000  Level Atlanta Center
08:53AM 32.6878 -84.8014 337° Northwest 436 502 36,000  Level Atlanta Center
08:54AM 32.7981 -84.8617 335° Northwest 436 502 36,000  Level Atlanta Center
08:55AM 32.9083 -84.9172 337° Northwest 441 507 36,000  Level Atlanta Center
08:56AM 33.0183 -84.9778 335° Northwest 441 507 36,000  Level Atlanta Center
08:57AM 33.1306 -85.0386 336° Northwest 441 507 36,000  Level Atlanta Center
08:58AM 33.2408 -85.0969 336° Northwest 441 507 36,000  Level Atlanta Center
08:59AM 33.3489 -85.1553 336° Northwest 441 507 36,000  Level Atlanta Center
09:00AM 33.4608 -85.2142 336° Northwest 441 507 36,000  Level Atlanta Center
09:01AM 33.5711 -85.2756 335° Northwest 441 507 36,000  Level Atlanta Center
09:02AM 33.6789 -85.3319 336° Northwest 433 498 36,000  Level Atlanta Center
09:03AM 33.7889 -85.3936 335° Northwest 433 498 36,000  Level Atlanta Center
09:04AM 33.8967 -85.4503 336° Northwest 433 498 36,000  Level Atlanta Center
09:05AM 34.0089 -85.5072 337° Northwest 433 498 36,000  Level Atlanta Center
09:06AM 34.1186 -85.5669 336° Northwest 428 493 36,000  Level Atlanta Center
09:07AM 34.2286 -85.6292 335° Northwest 428 493 36,000  Level Atlanta Center
09:08AM 34.3364 -85.6892 335° Northwest 428 493 36,000  Level Atlanta Center
09:09AM 34.4439 -85.7492 335° Northwest 423 487 36,000  Level Atlanta Center
09:10AM 34.5517 -85.8092 335° Northwest 423 487 36,000  Level Atlanta Center
09:11AM 34.6533 -85.8569 339° North 423 487 36,000  Level Atlanta Center
09:12AM 34.7589 -85.9172 335° Northwest 418 481 36,000  Level Atlanta Center
09:13AM 34.8192 -85.9539 333° Northwest 428 493 36,000  Level Memphis Center
09:14AM 34.9353 -86.0189 335° Northwest 428 493 36,000  Level Memphis Center
09:15AM 35.0431 -86.0792 335° Northwest 427 491 36,000  Level Memphis Center
09:16AM 35.1522 -86.1400 336° Northwest 427 491 36,000  Level Memphis Center
09:17AM 35.2592 -86.2008 335° Northwest 427 491 36,000  Level Memphis Center
09:18AM 35.3633 -86.2592 335° Northwest 424 488 36,000  Level Memphis Center
09:19AM 35.4694 -86.3200 335° Northwest 422 486 36,000  Level Memphis Center
09:20AM 35.5761 -86.3803 335° Northwest 421 484 36,000  Level Memphis Center
09:21AM 35.7000 -86.4506 335° Northwest 419 482 36,000  Level Memphis Center
09:22AM 35.8067 -86.5114 335° Northwest 419 482 36,000  Level Memphis Center
09:23AM 35.9131 -86.5722 335° Northwest 419 482 36,000  Level Memphis Center
09:24AM 36.0178 -86.6331 335° Northwest 417 480 36,000  Level Memphis Center
09:25AM 36.1231 -86.6933 335° Northwest 417 480 36,000  Level Memphis Center
09:26AM 36.2281 -86.7533 335° Northwest 416 479 36,000  Level Memphis Center
09:27AM 36.3358 -86.8169 335° Northwest 417 480 36,000  Level Memphis Center
09:28AM 36.4403 -86.8783 335° Northwest 417 480 36,000  Level Memphis Center
09:29AM 36.5589 -86.9442 336° Northwest 417 480 36,000  Level Memphis Center
09:30AM 36.6628 -87.0056 335° Northwest 415 478 36,000  Level Memphis Center
09:31AM 36.7678 -87.0686 334° Northwest 415 478 36,000  Level Memphis Center
09:32AM 36.8739 -87.1294 335° Northwest 414 476 36,000  Level Memphis Center
09:33AM 36.9786 -87.1922 334° Northwest 415 478 36,000  Level Memphis Center
09:34AM 37.1031 -87.2669 334° Northwest 415 478 36,000  Level Memphis Center
09:35AM 37.2094 -87.3289 335° Northwest 415 478 36,000  Level Memphis Center
09:36AM 37.3142 -87.3925 334° Northwest 415 478 36,000  Level Memphis Center
09:37AM 37.4197 -87.4542 335° Northwest 415 478 36,000  Level Memphis Center
09:38AM 37.5250 -87.5189 334° Northwest 415 478 36,000  Level Memphis Center
09:40AM 37.6647 -87.6022 335° Northwest 416 479 36,000  Level Indianapolis Center
09:41AM 37.7681 -87.6656 334° Northwest 414 476 36,000  Level Indianapolis Center
09:42AM 37.8711 -87.7278 335° Northwest 412 474 36,000  Level Indianapolis Center
09:43AM 37.9967 -87.8028 335° Northwest 412 474 36,000  Level Indianapolis Center
09:44AM 38.1019 -87.8644 335° Northwest 412 474 36,000 -360 Level Indianapolis Center
09:45AM 38.2067 -87.9253 335° Northwest 412 474 35,300 -900 Descending Indianapolis Center
09:46AM 38.3142 -87.9903 335° Northwest 417 480 34,200 -1,020 Descending Indianapolis Center
09:47AM 38.4217 -88.0542 335° Northwest 422 486 33,300 -960 Descending Indianapolis Center
09:48AM 38.5294 -88.1181 335° Northwest 422 486 32,300 -1,020 Descending Indianapolis Center
09:49AM 38.6147 -88.1714 334° Northwest 419 482 31,500 -1,020 Descending Kansas City Center
09:50AM 38.7200 -88.2361 334° Northwest 419 482 30,500 -960 Descending Kansas City Center
09:51AM 38.8272 -88.3008 335° Northwest 419 482 29,500 -960 Descending Kansas City Center
09:52AM 38.9344 -88.3653 335° Northwest 420 483 28,500 -780 Descending Kansas City Center
09:53AM 39.0397 -88.4292 335° Northwest 420 483 28,000 -300 Descending Kansas City Center
09:54AM 39.1442 -88.4911 335° Northwest 415 478 28,000 -360 Level Kansas City Center
09:55AM 39.2689 -88.5650 335° Northwest 415 478 27,300 -840 Descending Kansas City Center
09:56AM 39.3631 -88.6267 333° Northwest 400 460 26,300 -960 Descending Kansas City Center
09:57AM 39.4603 -88.6850 335° Northwest 391 450 25,400 -1,080 Descending Kansas City Center
09:58AM 39.5458 -88.7389 334° Northwest 384 442 24,200 -1,620 Descending Kansas City Center
09:59AM 39.6386 -88.7967 334° Northwest 376 433 22,100 -2,160 Descending Kansas City Center
10:00AM 39.7503 -88.8661 334° Northwest 375 432 19,700 -2,100 Descending Kansas City Center
10:01AM 39.8331 -88.9422 325° Northwest 368 423 17,900 -1,740 Descending Kansas City Center
10:02AM 39.9156 -89.0167 325° Northwest 365 420 16,200 -1,740 Descending Kansas City Center
10:03AM 39.9972 -89.0900 325° Northwest 362 417 14,400 -1,740 Descending Kansas City Center
10:04AM 40.0775 -89.1608 326° Northwest 354 407 12,700 -1,560 Descending Kansas City Center
10:05AM 40.1542 -89.2303 325° Northwest 342 394 11,300 -1,140 Descending Kansas City Center
10:06AM 40.2253 -89.2944 325° Northwest 321 369 10,400 -1,020 Descending Kansas City Center
10:07AM 40.3067 -89.3678 326° Northwest 302 348 9,200 -1,320 Descending Kansas City Center
10:08AM 40.3733 -89.4275 326° Northwest 296 341 7,700 -1,500 Descending Kansas City Center
10:09AM 40.4369 -89.4861 325° Northwest 287 330 6,200 -840 Descending Kansas City Center
10:10AM 40.5000 -89.5436 325° Northwest 283 326 6,100 -240 Descending Kansas City Center
10:11AM 40.5425 -89.6106 310° West 245 282 5,800 -480 Descending Kansas City Center
10:13AM 40.5817 -89.6678 312° West 224 258 5,100 -1,140 Descending Kansas City Center
10:14AM 40.6186 -89.7219 312° West 210 242 3,500 -1,320 Descending Kansas City Center
10:15AM 40.6644 -89.7900 312° West 207 238 2,500 -720 Descending Kansas City Center
10:16AM 40.6981 -89.8406 311° West 207 238 2,100 -300 Descending Kansas City Center
10:17AM 40.7086 -89.7733 78° East 134 154 1,900 -480 Descending Chicago Center
10:18AM 40.6811 -89.7261 128° Southeast 136 157 1,000 -600 Descending Chicago Center
10:19AM 40.6606 -89.6903 127° Southeast 135 155 700 -180 Descending Chicago Center
10:20AM 40.6642 -89.6908 353° North 73 84 700  Level Chicago Center
10:21AM 40.6672 -89.6894 19° North 61 70 700  Level Chicago Center